createdAt,value
2018-07-16T00:00:41.900Z,15.70
2018-07-16T00:03:11.258Z,15.60
2018-07-16T00:05:40.936Z,15.60
2018-07-16T00:08:10.283Z,15.60
2018-07-16T00:10:39.655Z,15.50
2018-07-16T00:13:09.024Z,15.50
2018-07-16T00:15:38.388Z,15.50
2018-07-16T00:18:07.874Z,15.40
2018-07-16T00:20:37.196Z,15.40
2018-07-16T00:23:06.622Z,15.30
2018-07-16T00:25:35.903Z,15.30
2018-07-16T00:28:05.430Z,15.20
2018-07-16T00:30:34.826Z,15.20
2018-07-16T00:33:04.135Z,15.20
2018-07-16T00:35:33.434Z,15.20
2018-07-16T00:38:02.675Z,15.10
2018-07-16T00:40:32.098Z,15.10
2018-07-16T00:43:01.683Z,15.00
2018-07-16T00:45:31.254Z,15.00
2018-07-16T00:48:00.574Z,14.90
2018-07-16T00:50:29.926Z,14.90
2018-07-16T00:52:59.383Z,14.90
2018-07-16T00:55:28.709Z,14.80
2018-07-16T00:57:58.094Z,14.80
2018-07-16T01:00:27.704Z,14.70
2018-07-16T01:02:57.197Z,14.70
2018-07-16T01:05:26.552Z,14.70
2018-07-16T01:07:56.195Z,14.60
2018-07-16T01:10:25.531Z,14.60
2018-07-16T01:12:55.311Z,14.60
2018-07-16T01:15:24.918Z,14.50
2018-07-16T01:17:54.663Z,14.50
2018-07-16T01:20:24.054Z,14.50
2018-07-16T01:22:53.547Z,14.40
2018-07-16T01:25:23.403Z,14.40
2018-07-16T01:27:52.922Z,14.30
2018-07-16T01:30:22.331Z,14.30
2018-07-16T01:32:51.606Z,14.30
2018-07-16T01:35:21.200Z,14.20
2018-07-16T01:37:51.043Z,14.20
2018-07-16T01:40:20.344Z,14.20
2018-07-16T01:42:49.652Z,14.10
2018-07-16T01:45:19.134Z,14.10
2018-07-16T01:47:48.714Z,14.10
2018-07-16T01:50:18.056Z,14.10
2018-07-16T01:52:47.605Z,14.10
2018-07-16T01:55:17.027Z,14.10
2018-07-16T01:57:46.672Z,14.00
2018-07-16T02:00:16.202Z,13.90
2018-07-16T02:02:45.555Z,13.90
2018-07-16T02:05:14.903Z,13.90
2018-07-16T02:07:44.500Z,13.80
2018-07-16T02:10:13.994Z,13.80
2018-07-16T02:12:43.297Z,13.80
2018-07-16T02:15:12.808Z,13.70
2018-07-16T02:17:42.128Z,13.70
2018-07-16T02:20:11.631Z,13.70
2018-07-16T02:22:40.979Z,13.70
2018-07-16T02:25:10.598Z,13.80
2018-07-16T02:27:39.918Z,13.70
2018-07-16T02:30:09.263Z,13.70
2018-07-16T02:32:38.666Z,13.60
2018-07-16T02:35:08.309Z,13.60
2018-07-16T02:37:37.614Z,13.60
2018-07-16T02:40:06.887Z,13.50
2018-07-16T02:42:36.431Z,13.50
2018-07-16T02:45:05.754Z,13.50
2018-07-16T02:47:35.140Z,13.50
2018-07-16T02:50:04.728Z,13.50
2018-07-16T02:52:34.014Z,13.40
2018-07-16T02:55:03.390Z,13.40
2018-07-16T02:57:33.256Z,13.40
2018-07-16T03:00:02.635Z,13.40
2018-07-16T03:02:34.827Z,13.40
2018-07-16T03:05:04.816Z,13.30
2018-07-16T03:07:34.789Z,13.30
2018-07-16T03:10:04.340Z,13.30
2018-07-16T03:12:33.794Z,13.30
2018-07-16T03:15:03.545Z,13.30
2018-07-16T03:17:33.440Z,13.30
2018-07-16T03:20:02.983Z,13.30
2018-07-16T03:22:32.539Z,13.30
2018-07-16T03:25:01.951Z,13.20
2018-07-16T03:27:31.241Z,13.20
2018-07-16T03:30:00.868Z,13.20
2018-07-16T03:32:30.470Z,13.20
2018-07-16T03:35:00.322Z,13.20
2018-07-16T03:37:29.651Z,13.20
2018-07-16T03:39:59.148Z,13.20
2018-07-16T03:42:28.442Z,13.20
2018-07-16T03:44:57.990Z,13.20
2018-07-16T03:47:27.375Z,13.20
2018-07-16T03:49:57.078Z,13.20
2018-07-16T03:52:26.660Z,13.20
2018-07-16T03:54:56.106Z,13.20
2018-07-16T03:57:25.495Z,13.20
2018-07-16T03:59:55.134Z,13.20
2018-07-16T04:02:24.656Z,13.20
2018-07-16T04:04:53.990Z,13.30
2018-07-16T04:07:23.331Z,13.30
2018-07-16T04:09:53.007Z,13.30
2018-07-16T04:12:22.576Z,13.40
2018-07-16T04:14:52.004Z,13.50
2018-07-16T04:17:22.030Z,14.10
2018-07-16T04:19:51.582Z,15.40
2018-07-16T04:22:20.911Z,16.80
2018-07-16T04:24:50.286Z,17.80
2018-07-16T04:27:19.686Z,19.00
2018-07-16T04:29:49.063Z,20.20
2018-07-16T04:32:18.623Z,21.20
2018-07-16T04:34:47.964Z,22.20
2018-07-16T04:37:17.259Z,23.10
2018-07-16T04:39:47.016Z,24.00
2018-07-16T04:42:16.525Z,24.80
2018-07-16T04:44:46.147Z,25.30
2018-07-16T04:47:15.536Z,25.70
2018-07-16T04:49:45.011Z,26.10
2018-07-16T04:52:14.580Z,26.20
2018-07-16T04:54:44.063Z,26.70
2018-07-16T04:57:13.454Z,27.30
2018-07-16T04:59:42.769Z,28.10
2018-07-16T05:02:12.274Z,29.00
2018-07-16T05:04:41.752Z,29.50
2018-07-16T05:07:11.372Z,30.00
2018-07-16T05:09:41.019Z,30.20
2018-07-16T05:12:10.691Z,30.30
2018-07-16T05:14:39.987Z,30.30
2018-07-16T05:17:09.365Z,30.20
2018-07-16T05:22:07.899Z,30.20
2018-07-16T05:24:37.299Z,30.40
2018-07-16T05:27:07.335Z,30.50
2018-07-16T05:29:36.656Z,31.20
2018-07-16T05:32:06.105Z,31.80
2018-07-16T05:34:35.310Z,32.30
2018-07-16T05:37:04.696Z,33.10
2018-07-16T05:39:33.947Z,33.80
2018-07-16T05:42:03.385Z,34.50
2018-07-16T05:47:01.750Z,35.20
2018-07-16T05:49:31.195Z,35.00
2018-07-16T05:52:00.575Z,34.90
2018-07-16T05:54:29.999Z,35.10
2018-07-16T05:56:59.638Z,35.80
2018-07-16T05:59:29.088Z,35.80
2018-07-16T06:01:58.568Z,35.80
2018-07-16T06:04:27.916Z,35.80
2018-07-16T06:06:57.318Z,36.50
2018-07-16T06:09:26.611Z,36.70
2018-07-16T06:11:56.047Z,37.00
2018-07-16T06:14:25.862Z,37.60
2018-07-16T06:16:55.325Z,37.80
2018-07-16T06:19:24.886Z,37.50
2018-07-16T06:21:54.376Z,37.30
2018-07-16T06:24:23.832Z,37.50
2018-07-16T06:26:54.351Z,37.80
2018-07-16T06:29:23.611Z,37.70
2018-07-16T06:31:52.904Z,38.10
2018-07-16T06:34:22.423Z,37.90
2018-07-16T06:36:51.776Z,38.60
2018-07-16T06:39:21.212Z,38.90
2018-07-16T06:41:50.614Z,39.30
2018-07-16T06:44:19.983Z,39.30
2018-07-16T06:46:49.672Z,39.60
2018-07-16T06:49:19.414Z,39.80
2018-07-16T06:51:48.924Z,39.60
2018-07-16T06:54:18.305Z,39.40
2018-07-16T06:56:47.663Z,38.90
2018-07-16T06:59:16.921Z,39.30
2018-07-16T07:01:46.383Z,39.40
2018-07-16T07:04:15.713Z,39.60
2018-07-16T07:06:45.143Z,39.70
2018-07-16T07:09:14.403Z,39.60
2018-07-16T07:11:43.749Z,39.70
2018-07-16T07:14:13.063Z,40.60
2018-07-16T07:16:42.506Z,40.80
2018-07-16T07:19:11.882Z,41.10
2018-07-16T07:21:41.219Z,40.70
2018-07-16T07:24:10.638Z,40.30
2018-07-16T07:26:40.000Z,40.60
2018-07-16T07:29:09.323Z,39.90
2018-07-16T07:31:38.740Z,40.50
2018-07-16T07:34:08.175Z,41.10
2018-07-16T07:36:37.436Z,40.70
2018-07-16T07:39:07.707Z,40.80
2018-07-16T07:41:37.323Z,40.90
2018-07-16T07:44:06.763Z,41.50
2018-07-16T07:46:36.123Z,42.30
2018-07-16T07:49:05.640Z,42.30
2018-07-16T07:51:35.087Z,41.80
2018-07-16T07:54:04.583Z,42.00
2018-07-16T07:56:33.980Z,41.20
2018-07-16T07:59:03.312Z,41.30
2018-07-16T08:01:32.599Z,41.50
2018-07-16T08:04:01.936Z,41.90
2018-07-16T08:06:31.307Z,41.10
2018-07-16T08:09:00.616Z,40.50
2018-07-16T08:11:29.937Z,40.60
2018-07-16T08:13:59.287Z,40.70
2018-07-16T08:16:28.588Z,41.20
2018-07-16T08:18:58.120Z,41.40
2018-07-16T08:21:27.461Z,40.40
2018-07-16T08:23:56.751Z,40.60
2018-07-16T08:26:26.221Z,41.10
2018-07-16T08:28:55.551Z,40.60
2018-07-16T08:31:25.998Z,40.40
2018-07-16T08:33:55.346Z,40.10
2018-07-16T08:36:24.671Z,40.50
2018-07-16T08:38:54.035Z,41.00
2018-07-16T08:43:53.026Z,42.10
2018-07-16T08:46:22.447Z,41.50
2018-07-16T08:48:51.850Z,40.50
2018-07-16T08:51:21.393Z,40.40
2018-07-16T08:53:50.753Z,41.10
2018-07-16T08:56:20.283Z,40.90
2018-07-16T08:58:51.163Z,41.00
2018-07-16T09:01:20.711Z,41.00
2018-07-16T09:03:51.256Z,41.40
2018-07-16T09:06:20.859Z,41.70
2018-07-16T09:08:50.216Z,41.40
2018-07-16T09:11:19.835Z,41.30
2018-07-16T09:13:49.653Z,41.40
2018-07-16T09:16:20.168Z,41.60
2018-07-16T09:18:49.543Z,40.40
2018-07-16T09:21:21.100Z,39.60
2018-07-16T09:23:50.412Z,39.40
2018-07-16T09:26:19.837Z,39.20
2018-07-16T09:28:49.313Z,39.50
2018-07-16T09:31:19.104Z,39.80
2018-07-16T09:33:48.829Z,39.40
2018-07-16T09:36:18.613Z,39.50
2018-07-16T09:38:48.551Z,40.00
2018-07-16T09:41:18.619Z,40.30
2018-07-16T09:43:50.484Z,40.80
2018-07-16T09:46:20.297Z,41.10
2018-07-16T09:48:50.437Z,39.50
2018-07-16T09:51:19.983Z,38.70
2018-07-16T09:53:49.282Z,38.60
2018-07-16T09:56:18.794Z,39.40
2018-07-16T09:58:48.390Z,39.80
2018-07-16T10:01:25.521Z,39.80
2018-07-16T10:03:55.676Z,39.10
2018-07-16T10:06:25.724Z,39.00
2018-07-16T10:08:56.659Z,38.80
2018-07-16T10:11:26.287Z,38.90
2018-07-16T10:13:55.842Z,38.40
2018-07-16T10:16:25.203Z,38.90
2018-07-16T10:18:54.739Z,38.80
2018-07-16T10:21:24.762Z,38.60
2018-07-16T10:23:54.209Z,38.10
2018-07-16T10:26:24.035Z,38.40
2018-07-16T10:28:53.637Z,38.20
2018-07-16T10:31:23.150Z,38.40
2018-07-16T10:33:52.745Z,38.40
2018-07-16T10:36:22.723Z,38.10
2018-07-16T10:38:52.355Z,38.00
2018-07-16T10:41:22.012Z,38.20
2018-07-16T10:43:52.446Z,38.10
2018-07-16T10:46:22.071Z,37.80
2018-07-16T10:48:51.781Z,37.40
2018-07-16T10:51:21.280Z,37.40
2018-07-16T10:53:51.922Z,37.40
2018-07-16T10:56:21.347Z,37.40
2018-07-16T10:58:50.716Z,37.10
2018-07-16T11:01:20.112Z,37.40
2018-07-16T11:03:49.782Z,37.40
2018-07-16T11:06:24.316Z,37.50
2018-07-16T11:08:54.734Z,37.40
2018-07-16T11:11:24.771Z,36.70
2018-07-16T11:13:54.090Z,36.70
2018-07-16T11:16:23.395Z,37.30
2018-07-16T11:18:52.728Z,37.70
2018-07-16T11:21:22.179Z,37.90
2018-07-16T11:23:51.535Z,37.30
2018-07-16T11:26:20.957Z,36.40
2018-07-16T11:28:50.450Z,36.20
2018-07-16T11:31:19.917Z,36.10
2018-07-16T11:33:49.375Z,35.90
2018-07-16T11:36:18.994Z,36.10
2018-07-16T11:38:48.610Z,36.40
2018-07-16T11:41:18.114Z,36.50
2018-07-16T11:43:47.638Z,36.60
2018-07-16T11:46:17.092Z,36.40
2018-07-16T11:48:46.499Z,35.90
2018-07-16T11:51:16.631Z,35.30
2018-07-16T11:53:45.911Z,35.30
2018-07-16T11:56:15.552Z,35.10
2018-07-16T11:58:45.050Z,34.40
2018-07-16T12:01:14.474Z,34.00
2018-07-16T12:03:44.490Z,33.90
2018-07-16T12:06:19.312Z,33.60
2018-07-16T12:08:48.683Z,33.50
2018-07-16T12:11:19.515Z,33.10
2018-07-16T12:13:49.107Z,32.60
2018-07-16T12:16:18.581Z,32.40
2018-07-16T12:18:48.278Z,32.30
2018-07-16T12:21:17.879Z,32.10
2018-07-16T12:23:47.924Z,32.10
2018-07-16T12:26:17.293Z,32.10
2018-07-16T12:28:46.682Z,32.00
2018-07-16T12:31:16.246Z,32.10
2018-07-16T12:33:45.641Z,32.20
2018-07-16T12:36:15.332Z,32.30
2018-07-16T12:38:44.825Z,32.40
2018-07-16T12:41:14.214Z,32.60
2018-07-16T12:43:44.490Z,32.70
2018-07-16T12:46:13.877Z,32.60
2018-07-16T12:48:43.204Z,32.50
2018-07-16T12:53:41.791Z,32.20
2018-07-16T12:58:41.835Z,31.70
2018-07-16T13:01:11.596Z,31.60
2018-07-16T13:03:41.119Z,31.50
2018-07-16T13:06:10.548Z,31.60
2018-07-16T13:08:40.366Z,31.70
2018-07-16T13:11:10.102Z,31.90
2018-07-16T13:13:40.116Z,31.90
2018-07-16T13:16:10.103Z,31.90
2018-07-16T13:18:41.994Z,32.00
2018-07-16T13:21:12.036Z,31.90
2018-07-16T13:23:46.846Z,32.00
2018-07-16T13:26:16.868Z,31.90
2018-07-16T13:28:47.022Z,31.80
2018-07-16T13:31:16.895Z,31.80
2018-07-16T13:33:46.857Z,31.80
2018-07-16T13:36:16.535Z,31.90
2018-07-16T13:38:46.125Z,31.70
2018-07-16T13:41:15.774Z,31.80
2018-07-16T13:43:45.475Z,31.80
2018-07-16T13:46:14.881Z,31.80
2018-07-16T13:48:44.348Z,31.80
2018-07-16T13:51:14.067Z,31.80
2018-07-16T13:53:44.032Z,31.70
2018-07-16T13:56:13.803Z,31.70
2018-07-16T13:58:43.634Z,31.80
2018-07-16T14:01:13.313Z,31.60
2018-07-16T14:03:43.369Z,31.40
2018-07-16T14:06:13.160Z,31.30
2018-07-16T14:08:42.657Z,31.20
2018-07-16T14:11:12.112Z,31.00
2018-07-16T14:13:41.746Z,31.00
2018-07-16T14:16:11.610Z,31.00
2018-07-16T14:18:41.036Z,31.10
2018-07-16T14:21:10.615Z,31.10
2018-07-16T14:23:40.012Z,31.10
2018-07-16T14:26:09.560Z,31.10
2018-07-16T14:28:39.424Z,31.10
2018-07-16T14:31:09.420Z,31.10
2018-07-16T14:33:39.200Z,31.00
2018-07-16T14:38:38.404Z,31.00
2018-07-16T14:41:08.672Z,31.10
2018-07-16T14:43:38.401Z,31.00
2018-07-16T14:46:08.409Z,30.90
2018-07-16T14:48:38.075Z,30.80
2018-07-16T14:51:08.003Z,30.80
2018-07-16T14:53:37.404Z,30.70
2018-07-16T14:56:07.015Z,30.70
2018-07-16T14:58:36.633Z,30.70
2018-07-16T15:01:06.287Z,30.70
2018-07-16T15:06:04.735Z,30.70
2018-07-16T15:08:34.192Z,30.60
2018-07-16T15:11:03.535Z,30.60
2018-07-16T15:13:32.966Z,30.70
2018-07-16T15:16:02.816Z,30.70
2018-07-16T15:21:02.754Z,30.60
2018-07-16T15:23:31.906Z,30.70
2018-07-16T15:26:01.280Z,30.60
2018-07-16T15:28:31.044Z,30.50
2018-07-16T15:33:30.770Z,30.30
2018-07-16T15:36:01.078Z,30.20
2018-07-16T15:38:31.121Z,30.10
2018-07-16T15:41:00.943Z,30.20
2018-07-16T15:43:30.918Z,30.20
2018-07-16T15:46:00.618Z,30.30
2018-07-16T15:48:30.059Z,30.30
2018-07-16T15:51:00.052Z,30.30
2018-07-16T15:53:29.812Z,30.30
2018-07-16T15:55:59.512Z,30.30
2018-07-16T15:58:29.378Z,30.20
2018-07-16T16:01:00.160Z,30.20
2018-07-16T16:05:58.971Z,30.00
2018-07-16T16:08:28.523Z,30.00
2018-07-16T16:10:57.946Z,30.10
2018-07-16T16:13:27.631Z,30.00
2018-07-16T16:15:57.384Z,29.80
2018-07-16T16:18:26.857Z,29.70
2018-07-16T16:20:56.343Z,29.60
2018-07-16T16:23:25.835Z,29.50
2018-07-16T16:25:55.870Z,29.60
2018-07-16T16:28:25.893Z,29.60
2018-07-16T16:30:56.130Z,29.50
2018-07-16T16:33:26.746Z,29.50
2018-07-16T16:35:57.163Z,29.50
2018-07-16T16:38:27.155Z,29.40
2018-07-16T16:40:56.713Z,29.40
2018-07-16T16:43:26.305Z,29.40
2018-07-16T16:45:57.624Z,29.20
2018-07-16T16:48:30.805Z,29.20
2018-07-16T16:51:01.496Z,29.20
2018-07-16T16:53:31.722Z,29.10
2018-07-16T16:56:02.049Z,29.10
2018-07-16T16:58:32.217Z,29.00
2018-07-16T17:01:02.009Z,29.00
2018-07-16T17:03:32.103Z,28.90
2018-07-16T17:06:03.110Z,28.90
2018-07-16T17:08:33.032Z,28.80
2018-07-16T17:13:32.299Z,28.70
2018-07-16T17:16:02.113Z,28.60
2018-07-16T17:18:31.989Z,28.60
2018-07-16T17:21:01.934Z,28.50
2018-07-16T17:23:31.346Z,28.40
2018-07-16T17:26:00.791Z,28.40
2018-07-16T17:28:30.211Z,28.30
2018-07-16T17:33:28.666Z,28.30
2018-07-16T17:35:58.120Z,28.30
2018-07-16T17:38:27.714Z,28.30
2018-07-16T17:43:26.791Z,28.30
2018-07-16T17:45:57.577Z,28.30
2018-07-16T17:48:26.980Z,28.20
2018-07-16T17:50:56.403Z,28.20
2018-07-16T17:53:25.872Z,28.20
2018-07-16T17:55:56.335Z,28.10
2018-07-16T17:58:26.236Z,28.10
2018-07-16T18:00:56.019Z,28.10
2018-07-16T18:03:25.790Z,28.10
2018-07-16T18:05:56.247Z,28.00
2018-07-16T18:08:26.038Z,28.00
2018-07-16T18:10:56.160Z,28.00
2018-07-16T18:13:25.832Z,27.90
2018-07-16T18:15:55.772Z,27.80
2018-07-16T18:18:25.131Z,27.70
2018-07-16T18:20:54.729Z,27.70
2018-07-16T18:23:24.102Z,27.60
2018-07-16T18:25:57.453Z,27.50
2018-07-16T18:28:27.258Z,27.50
2018-07-16T18:30:56.882Z,27.40
2018-07-16T18:33:26.795Z,27.30
2018-07-16T18:35:57.243Z,27.30
2018-07-16T18:38:26.551Z,27.20
2018-07-16T18:40:56.048Z,27.10
2018-07-16T18:43:25.427Z,27.10
2018-07-16T18:45:55.068Z,27.00
2018-07-16T18:48:24.384Z,27.00
2018-07-16T18:50:53.859Z,26.90
2018-07-16T18:53:23.480Z,26.80
2018-07-16T18:55:52.925Z,26.80
2018-07-16T18:58:22.352Z,26.70
2018-07-16T19:00:51.762Z,26.60
2018-07-16T19:03:21.536Z,26.60
2018-07-16T19:05:51.476Z,26.50
2018-07-16T19:08:21.133Z,26.40
2018-07-16T19:10:50.886Z,26.40
2018-07-16T19:13:20.466Z,26.30
2018-07-16T19:15:50.315Z,26.30
2018-07-16T19:18:20.035Z,26.20
2018-07-16T19:20:49.485Z,26.10
2018-07-16T19:25:48.215Z,25.90
2018-07-16T19:30:47.175Z,25.70
2018-07-16T19:33:16.728Z,25.50
2018-07-16T19:35:46.235Z,25.50
2018-07-16T19:38:15.623Z,25.40
2018-07-16T19:40:45.399Z,25.30
2018-07-16T19:43:14.890Z,25.20
2018-07-16T19:45:44.259Z,25.10
2018-07-16T19:48:13.627Z,25.00
2018-07-16T19:50:42.996Z,24.90
2018-07-16T19:53:13.049Z,24.70
2018-07-16T19:55:42.682Z,24.60
2018-07-16T19:58:12.094Z,24.50
2018-07-16T20:00:41.459Z,24.40
2018-07-16T20:03:10.783Z,24.30
2018-07-16T20:05:40.411Z,24.10
2018-07-16T20:08:09.831Z,23.90
2018-07-16T20:10:39.347Z,23.80
2018-07-16T20:13:08.810Z,23.70
2018-07-16T20:15:38.553Z,23.60
2018-07-16T20:18:08.095Z,23.40
2018-07-16T20:20:50.728Z,23.30
2018-07-16T20:23:20.119Z,23.10
2018-07-16T20:25:50.502Z,23.00
2018-07-16T20:28:20.105Z,22.90
2018-07-16T20:30:49.914Z,22.80
2018-07-16T20:33:19.767Z,22.70
2018-07-16T20:35:49.652Z,22.60
2018-07-16T20:38:19.301Z,22.50
2018-07-16T20:40:49.260Z,22.30
2018-07-16T20:43:19.016Z,22.20
2018-07-16T20:45:48.582Z,22.10
2018-07-16T20:48:18.239Z,22.00
2018-07-16T20:50:47.970Z,21.90
2018-07-16T20:53:17.791Z,21.80
2018-07-16T20:55:47.240Z,21.70
2018-07-16T20:58:16.898Z,21.70
2018-07-16T21:00:46.340Z,21.60
2018-07-16T21:03:15.754Z,21.50
2018-07-16T21:05:46.019Z,21.40
2018-07-16T21:08:15.550Z,21.30
2018-07-16T21:10:45.194Z,21.20
2018-07-16T21:13:14.588Z,21.20
2018-07-16T21:15:44.171Z,21.10
2018-07-16T21:18:13.571Z,21.00
2018-07-16T21:20:43.156Z,21.00
2018-07-16T21:23:12.640Z,20.90
2018-07-16T21:25:42.088Z,20.90
2018-07-16T21:28:11.803Z,20.80
2018-07-16T21:30:41.513Z,20.70
2018-07-16T21:33:13.388Z,20.70
2018-07-16T21:35:43.205Z,20.60
2018-07-16T21:38:12.799Z,20.60
2018-07-16T21:40:42.260Z,20.50
2018-07-16T21:43:11.626Z,20.40
2018-07-16T21:45:40.889Z,20.40
2018-07-16T21:48:10.497Z,20.30
2018-07-16T21:50:40.801Z,20.30
2018-07-16T21:53:10.225Z,20.30
2018-07-16T21:55:39.708Z,20.20
2018-07-16T21:58:09.319Z,20.10
2018-07-16T22:00:39.046Z,20.10
2018-07-16T22:03:08.459Z,20.10
2018-07-16T22:05:37.866Z,20.00
2018-07-16T22:08:07.505Z,20.00
2018-07-16T22:10:37.033Z,19.90
2018-07-16T22:13:06.453Z,19.90
2018-07-16T22:15:36.700Z,19.80
2018-07-16T22:18:06.798Z,19.80
2018-07-16T22:23:07.046Z,19.70
2018-07-16T22:25:36.854Z,19.60
2018-07-16T22:28:07.229Z,19.60
2018-07-16T22:30:36.603Z,19.50
2018-07-16T22:33:06.543Z,19.40
2018-07-16T22:35:36.018Z,19.40
2018-07-16T22:38:05.670Z,19.40
2018-07-16T22:40:35.162Z,19.30
2018-07-16T22:43:04.766Z,19.30
2018-07-16T22:45:34.391Z,19.20
2018-07-16T22:48:04.151Z,19.20
2018-07-16T22:50:33.647Z,19.10
2018-07-16T22:53:03.157Z,19.10
2018-07-16T22:55:32.803Z,19.00
2018-07-16T22:58:02.460Z,19.00
2018-07-16T23:00:32.243Z,18.90
2018-07-16T23:03:01.912Z,18.80
2018-07-16T23:05:31.675Z,18.70
2018-07-16T23:08:01.496Z,18.70
2018-07-16T23:10:31.066Z,18.70
2018-07-16T23:13:01.185Z,18.60
2018-07-16T23:15:31.289Z,18.50
2018-07-16T23:18:00.816Z,18.50
2018-07-16T23:20:30.664Z,18.50
2018-07-16T23:23:00.138Z,18.40
2018-07-16T23:25:29.735Z,18.40
2018-07-16T23:27:59.560Z,18.40
2018-07-16T23:30:29.238Z,18.40
2018-07-16T23:32:58.638Z,18.40
2018-07-16T23:35:28.551Z,18.40
2018-07-16T23:37:58.037Z,18.40
2018-07-16T23:40:27.422Z,18.30
2018-07-16T23:42:56.914Z,18.40
2018-07-16T23:45:26.317Z,18.30
2018-07-16T23:47:55.916Z,18.30
2018-07-16T23:50:25.378Z,18.30
2018-07-16T23:52:54.846Z,18.30
2018-07-16T23:55:24.351Z,18.40
2018-07-16T23:57:53.790Z,18.40
